Glen Orrin, United Kingdom
Current Conditions -  °F | °C
As of 2:50 AM on Tuesday 21 Oct 2014 (Local Time) from EGPE Reporting Station
Few Clouds Few Clouds  
Wind Chill: 55°   Ceiling: Unl
Heat Index: 55°   Visibility: 6mi
Dew Point: 50°   Wind: 16mph
Humidity: 82%   Direction: 160°SSE
Pressure: 29.03"   Gusts: NA
Location:  57.5°N, 5°W
Report Text: EGPE 210150Z 16014KT 9999 FEW045 13/10 Q0983
Loading
Personal Weather Stations






























Interactive Weather Map
Tropical Storm Tracking
New forecast layout! Learn more

10-Day Weather Forecast

Advertisements
Track Severe Weather on mobile